Time;durP1;ratioP1;P1;durP2;ratioP2;P2;SDS_P1;SDS_P2;PMS_P1;PMS_P2;Temp;Humidity;BMP_temperature;BMP_pressure;BME280_temperature;BME280_humidity;BME280_pressure;Samples;Min_cycle;Max_cycle;Signal;HPM_P1;HPM_P2
2023/04/29 13:21:45;;;;;;;45.53;29.60;;;11.50;1.00;;;;;;5092797;28;20974;-95
2023/04/29 13:24:12;;;;;;;54.57;30.00;;;11.50;1.00;;;;;;5092696;28;20205;-95
2023/04/29 13:26:39;;;;;;;56.03;33.90;;;11.60;26.90;;;;;;5091964;28;20213;-95
2023/04/29 13:29:06;;;;;;;50.90;31.60;;;11.80;99.90;;;;;;5093209;28;20209;-93
2023/04/29 13:31:33;;;;;;;47.83;31.77;;;11.90;1.00;;;;;;5093001;28;20196;-94
2023/04/29 13:34:00;;;;;;;55.30;34.20;;;12.10;1.00;;;;;;5079124;28;20201;-95
2023/04/29 13:36:29;;;;;;;64.07;38.43;;;12.20;1.00;;;;;;5083137;28;20201;-94
2023/04/29 13:38:57;;;;;;;54.87;34.17;;;12.30;99.90;;;;;;5091786;28;20198;-96
2023/04/29 13:41:25;;;;;;;58.67;33.67;;;12.40;99.90;;;;;;5084270;28;20225;-93
2023/04/29 13:43:52;;;;;;;55.80;33.23;;;12.40;1.00;;;;;;5091792;28;20207;-95
2023/04/29 13:46:18;;;;;;;55.80;33.77;;;12.40;1.00;;;;;;5091300;28;20553;-94
2023/04/29 13:48:45;;;;;;;58.37;33.47;;;12.50;1.00;;;;;;5087378;28;20193;-96
2023/04/29 13:51:12;;;;;;;53.33;31.33;;;12.50;1.00;;;;;;5091766;28;20246;-95
2023/04/29 13:53:39;;;;;;;56.67;33.10;;;12.60;1.00;;;;;;5091646;28;20225;-95
2023/04/29 13:56:08;;;;;;;55.80;29.87;;;12.60;99.90;;;;;;5091816;28;20294;-94
2023/04/29 13:58:35;;;;;;;59.60;33.07;;;12.60;99.90;;;;;;5091230;28;20217;-94
2023/04/29 14:01:01;;;;;;;59.77;32.03;;;12.60;99.90;;;;;;5091299;28;20197;-94
2023/04/29 14:03:28;;;;;;;55.33;30.67;;;12.70;99.90;;;;;;5082540;28;20210;-96
2023/04/29 14:05:55;;;;;;;48.37;28.20;;;12.80;1.00;;;;;;5070773;28;20551;-95
2023/04/29 14:08:22;;;;;;;55.77;32.23;;;12.90;1.00;;;;;;5071236;28;20682;-94
2023/04/29 14:10:49;;;;;;;55.77;34.33;;;12.90;99.90;;;;;;5071228;28;20565;-95
2023/04/29 14:13:17;;;;;;;50.23;30.00;;;12.90;99.90;;;;;;5086212;28;20209;-96
2023/04/29 14:15:44;;;;;;;56.00;32.47;;;12.90;99.90;;;;;;5080145;28;20203;-96
2023/04/29 14:18:11;;;;;;;59.37;32.93;;;12.90;99.90;;;;;;5077018;28;20191;-96
2023/04/29 14:20:38;;;;;;;42.17;26.33;;;12.90;5.60;;;;;;5089579;28;20741;-94
2023/04/29 14:23:04;;;;;;;39.37;23.33;;;12.80;1.00;;;;;;5077914;28;20730;-95
2023/04/29 14:25:31;;;;;;;40.17;25.63;;;12.80;1.00;;;;;;5084716;28;20208;-95
2023/04/29 14:27:58;;;;;;;39.67;25.90;;;12.90;1.00;;;;;;5090925;28;20201;-95
2023/04/29 14:30:26;;;;;;;44.00;23.83;;;12.90;1.00;;;;;;5091123;28;20214;-95
2023/04/29 14:32:53;;;;;;;43.20;25.20;;;12.90;1.00;;;;;;5078458;28;20214;-96
2023/04/29 14:35:20;;;;;;;38.77;23.40;;;12.90;1.00;;;;;;5076921;28;20195;-96
2023/04/29 14:37:46;;;;;;;34.47;21.60;;;13.00;1.00;;;;;;5077421;28;20199;-95
2023/04/29 14:40:13;;;;;;;30.43;19.93;;;13.00;1.00;;;;;;5077026;28;20674;-95
2023/04/29 14:42:40;;;;;;;25.73;17.37;;;13.10;99.90;;;;;;5077049;28;20233;-96
2023/04/29 14:45:08;;;;;;;21.50;15.13;;;13.20;99.90;;;;;;5077171;28;20198;-95
2023/04/29 14:47:36;;;;;;;22.30;15.20;;;13.30;1.00;;;;;;5076928;28;20197;-96
2023/04/29 14:50:03;;;;;;;21.20;14.83;;;13.20;1.00;;;;;;5076984;28;20583;-95
2023/04/29 14:52:30;;;;;;;18.37;13.07;;;13.30;1.00;;;;;;5077049;28;20201;-93
2023/04/29 14:54:57;;;;;;;18.83;13.63;;;13.20;1.00;;;;;;5064521;28;20650;-96
2023/04/29 14:57:23;;;;;;;19.23;13.77;;;13.20;1.00;;;;;;5069585;28;20191;-95
2023/04/29 14:59:50;;;;;;;19.33;13.97;;;13.10;1.00;;;;;;5077074;28;20208;-95
2023/04/29 15:02:17;;;;;;;22.43;15.60;;;13.10;1.00;;;;;;5076888;28;20197;-96
2023/04/29 15:04:45;;;;;;;19.40;14.70;;;13.00;1.00;;;;;;5057636;28;20208;-96
2023/04/29 15:07:13;;;;;;;21.23;15.03;;;13.00;1.00;;;;;;5056760;28;20207;-94
2023/04/29 15:09:40;;;;;;;21.43;15.93;;;13.00;1.00;;;;;;5056692;28;20230;-93
2023/04/29 15:12:06;;;;;;;21.97;15.87;;;13.00;1.00;;;;;;5057408;28;20277;-95
2023/04/29 15:14:33;;;;;;;25.00;16.77;;;12.90;1.00;;;;;;5178749;22;20231;-95
2023/04/29 15:17:00;;;;;;;22.57;17.97;;;12.90;1.00;;;;;;5058353;28;20204;-92
2023/04/29 15:19:27;;;;;;;24.10;16.60;;;12.80;1.00;;;;;;5056062;28;20290;-92
2023/04/29 15:21:55;;;;;;;28.93;19.73;;;12.80;1.00;;;;;;5056326;28;20291;-92
2023/04/29 15:24:22;;;;;;;27.27;18.87;;;12.70;1.00;;;;;;5055998;28;20578;-93
2023/04/29 15:26:50;;;;;;;27.43;21.00;;;12.70;1.00;;;;;;5056121;28;20209;-93
2023/04/29 15:29:17;;;;;;;30.03;21.50;;;12.60;3.80;;;;;;5056070;28;20199;-94
2023/04/29 15:31:44;;;;;;;29.13;21.27;;;12.60;99.90;;;;;;5056077;28;20221;-94
2023/04/29 15:34:11;;;;;;;30.00;21.77;;;12.50;99.90;;;;;;5056146;28;20202;-95
2023/04/29 15:36:37;;;;;;;28.47;20.93;;;12.50;99.90;;;;;;5056129;28;20677;-93
2023/04/29 15:39:09;;;;;;;28.30;20.40;;;12.40;99.90;;;;;;5056304;28;20211;-92
2023/04/29 15:41:36;;;;;;;28.63;21.60;;;12.40;99.90;;;;;;5055907;28;20279;-94
2023/04/29 15:44:03;;;;;;;29.83;22.40;;;12.30;99.90;;;;;;5054711;28;20200;-95
2023/04/29 15:46:30;;;;;;;31.30;23.77;;;12.30;1.00;;;;;;5055733;28;20234;-94
2023/04/29 15:48:57;;;;;;;33.73;21.77;;;12.20;1.00;;;;;;5056115;28;20199;-91
2023/04/29 15:51:24;;;;;;;32.83;24.93;;;12.20;1.00;;;;;;5055683;28;20201;-94
2023/04/29 15:53:50;;;;;;;33.60;24.43;;;12.10;1.00;;;;;;5055912;28;20199;-91
2023/04/29 15:56:18;;;;;;;33.10;23.57;;;12.20;1.00;;;;;;5055835;28;20293;-91
2023/04/29 15:58:45;;;;;;;37.90;24.03;;;12.20;1.00;;;;;;5054720;28;20195;-92
2023/04/29 16:01:12;;;;;;;31.33;23.60;;;12.20;1.00;;;;;;5055177;28;20194;-91
2023/04/29 16:03:39;;;;;;;32.93;21.97;;;12.20;1.00;;;;;;5055544;28;20197;-93
2023/04/29 16:06:05;;;;;;;31.67;23.80;;;12.20;1.00;;;;;;5055141;28;20200;-95
2023/04/29 16:08:32;;;;;;;33.53;23.83;;;12.20;1.00;;;;;;5055310;28;20237;-94
2023/04/29 16:10:59;;;;;;;32.97;24.20;;;12.20;99.90;;;;;;5053672;28;20219;-95
2023/04/29 16:13:27;;;;;;;29.30;22.43;;;12.30;99.90;;;;;;5054801;28;20657;-95
2023/04/29 16:15:55;;;;;;;29.53;21.97;;;12.30;95.80;;;;;;5046033;28;20261;-95
2023/04/29 16:18:22;;;;;;;30.97;23.37;;;12.30;1.00;;;;;;5055294;28;20194;-95
2023/04/29 16:20:48;;;;;;;27.87;21.53;;;12.30;1.00;;;;;;5054662;28;20199;-96
2023/04/29 16:23:15;;;;;;;31.27;21.33;;;12.30;1.00;;;;;;5055513;28;20198;-96
2023/04/29 16:25:42;;;;;;;26.97;19.47;;;12.30;1.00;;;;;;5055438;28;20199;-95
2023/04/29 16:28:09;;;;;;;28.93;21.37;;;12.30;1.00;;;;;;5055736;28;20204;-95
2023/04/29 16:30:37;;;;;;;24.27;18.93;;;12.20;1.00;;;;;;5055254;28;20218;-95
2023/04/29 16:33:03;;;;;;;29.63;20.87;;;12.30;1.00;;;;;;5055679;28;20210;-94
2023/04/29 16:35:30;;;;;;;28.23;19.53;;;12.20;99.90;;;;;;5054878;28;20201;-95
2023/04/29 16:37:57;;;;;;;26.53;20.60;;;12.20;99.90;;;;;;5046844;28;20194;-95
2023/04/29 16:40:24;;;;;;;26.73;19.97;;;12.10;99.90;;;;;;5055321;28;20289;-95
2023/04/29 16:42:52;;;;;;;26.47;19.67;;;12.20;99.90;;;;;;5055109;28;20209;-96
2023/04/29 16:45:18;;;;;;;24.73;19.23;;;12.20;99.90;;;;;;5054955;28;20197;-94
2023/04/29 16:47:47;;;;;;;25.47;19.83;;;12.20;99.90;;;;;;5055167;28;20206;-93
2023/04/29 16:50:16;;;;;;;22.63;18.43;;;12.20;99.90;;;;;;5035033;28;20198;-95
2023/04/29 16:52:43;;;;;;;27.10;18.63;;;12.20;99.90;;;;;;5048889;28;20301;-95
2023/04/29 16:55:11;;;;;;;22.83;18.33;;;12.20;83.10;;;;;;5054158;28;20195;-95
2023/04/29 16:57:38;;;;;;;21.97;18.07;;;12.20;1.00;;;;;;5064053;28;20616;-93
2023/04/29 17:00:08;;;;;;;23.30;16.90;;;12.20;1.00;;;;;;5074614;28;20207;-92
2023/04/29 17:02:36;;;;;;;21.33;16.77;;;12.20;1.00;;;;;;5074275;28;20584;-90
2023/04/29 17:05:04;;;;;;;22.57;17.20;;;12.10;1.00;;;;;;5054912;28;20194;-93
2023/04/29 17:07:31;;;;;;;19.90;15.47;;;12.20;1.00;;;;;;5054460;28;20194;-93
2023/04/29 17:09:58;;;;;;;22.63;17.90;;;12.20;1.00;;;;;;5054509;28;20202;-92
2023/04/29 17:12:25;;;;;;;21.37;16.67;;;12.20;1.00;;;;;;5053961;28;20592;-91
2023/04/29 17:14:53;;;;;;;23.70;17.30;;;12.20;1.00;;;;;;5054490;28;20236;-92
2023/04/29 17:17:20;;;;;;;22.63;16.83;;;12.30;1.00;;;;;;5054513;28;20202;-93
2023/04/29 17:19:48;;;;;;;21.87;16.27;;;12.30;1.00;;;;;;5054243;28;20207;-91
2023/04/29 17:22:17;;;;;;;23.77;17.27;;;12.30;1.00;;;;;;5054099;28;20222;-92
2023/04/29 17:24:44;;;;;;;20.57;15.47;;;12.30;1.00;;;;;;5051823;28;20206;-89
2023/04/29 17:27:11;;;;;;;22.23;16.20;;;12.30;1.00;;;;;;5052294;28;20194;-90
2023/04/29 17:29:38;;;;;;;22.17;17.23;;;12.30;1.00;;;;;;5033452;28;20207;-90
2023/04/29 17:32:09;;;;;;;20.93;16.37;;;12.30;1.00;;;;;;5053030;28;20220;-92
2023/04/29 17:34:36;;;;;;;24.43;16.17;;;12.30;1.00;;;;;;5053247;28;20205;-91
2023/04/29 17:37:04;;;;;;;21.10;15.83;;;12.30;1.00;;;;;;5053227;28;20199;-90
2023/04/29 17:39:33;;;;;;;21.63;16.03;;;12.30;1.00;;;;;;5050461;28;20283;-92
2023/04/29 17:42:00;;;;;;;22.90;17.03;;;12.20;1.00;;;;;;5052816;28;20198;-92
2023/04/29 17:44:27;;;;;;;25.43;15.83;;;12.20;1.00;;;;;;5049592;28;20218;-94
2023/04/29 17:46:54;;;;;;;19.27;15.47;;;12.10;1.00;;;;;;5054107;28;20535;-91
2023/04/29 17:49:21;;;;;;;24.27;16.00;;;12.10;1.00;;;;;;5045081;28;20191;-93
2023/04/29 17:51:48;;;;;;;22.43;17.40;;;12.10;1.00;;;;;;5043434;28;20220;-92
2023/04/29 17:54:14;;;;;;;143.07;107.23;;;12.10;1.00;;;;;;5053376;28;20192;-93
2023/04/29 17:56:43;;;;;;;365.20;256.20;;;12.00;1.00;;;;;;5054417;28;20198;-92
2023/04/29 17:59:09;;;;;;;293.77;172.57;;;12.00;1.00;;;;;;5034269;28;20287;-91
2023/04/29 18:01:36;;;;;;;46.33;33.33;;;12.00;1.00;;;;;;5049386;28;20196;-91
2023/04/29 18:04:04;;;;;;;28.27;21.63;;;12.10;1.00;;;;;;5052869;28;20204;-91
2023/04/29 18:06:31;;;;;;;25.57;18.63;;;12.00;1.00;;;;;;5053655;28;20286;-91
2023/04/29 18:08:58;;;;;;;25.57;19.37;;;12.00;1.00;;;;;;5057105;28;20198;-91
2023/04/29 18:11:24;;;;;;;26.80;20.10;;;12.00;1.00;;;;;;5057085;28;20689;-93
2023/04/29 18:13:54;;;;;;;29.40;20.03;;;11.90;1.00;;;;;;5057963;28;20204;-93
2023/04/29 18:16:20;;;;;;;26.53;20.03;;;11.90;10.90;;;;;;5057196;28;20230;-95
2023/04/29 18:18:50;;;;;;;30.43;22.33;;;11.80;55.20;;;;;;5067925;28;20196;-94
2023/04/29 18:21:20;;;;;;;37.43;27.37;;;11.70;99.90;;;;;;5038127;28;20247;-93
2023/04/29 18:23:47;;;;;;;29.17;23.30;;;11.70;99.90;;;;;;5047420;28;20186;-96
2023/04/29 18:26:14;;;;;;;33.30;26.33;;;11.60;99.90;;;;;;5057444;28;20203;-94
2023/04/29 18:28:41;;;;;;;26.63;19.60;;;11.60;99.90;;;;;;5057488;28;20204;-95
2023/04/29 18:31:09;;;;;;;21.83;17.03;;;11.50;1.00;;;;;;5057246;28;20211;-94
2023/04/29 18:33:36;;;;;;;20.17;16.20;;;11.50;1.00;;;;;;5058099;28;20284;-93
2023/04/29 18:36:03;;;;;;;20.63;15.13;;;11.40;1.00;;;;;;5057500;28;20204;-94
2023/04/29 18:38:30;;;;;;;15.93;11.80;;;11.30;99.90;;;;;;5057235;28;20208;-93
2023/04/29 18:40:57;;;;;;;13.53;11.13;;;11.10;99.90;;;;;;5057296;28;20655;-94
2023/04/29 18:43:27;;;;;;;35.03;25.43;;;10.90;99.90;;;;;;5057128;28;20279;-93
2023/04/29 18:45:54;;;;;;;13.30;10.63;;;10.70;23.90;;;;;;5046674;28;20766;-94
2023/04/29 18:48:22;;;;;;;13.67;10.00;;;10.50;1.00;;;;;;5056923;28;20223;-94
2023/04/29 18:50:51;;;;;;;12.10;10.23;;;10.40;1.00;;;;;;5056283;28;20195;-93
2023/04/29 18:53:18;;;;;;;12.93;7.70;;;10.20;1.00;;;;;;5056297;28;20222;-94
2023/04/29 18:55:45;;;;;;;12.37;8.40;;;10.00;1.00;;;;;;5074490;28;20619;-95
2023/04/29 18:58:12;;;;;;;9.20;7.60;;;9.90;1.00;;;;;;5063870;28;20230;-93
2023/04/29 19:00:39;;;;;;;9.57;6.47;;;9.80;1.00;;;;;;5056838;28;20197;-94
2023/04/29 19:03:06;;;;;;;11.07;7.67;;;9.70;1.00;;;;;;5056987;28;20192;-93
2023/04/29 19:05:34;;;;;;;10.13;6.10;;;9.50;99.90;;;;;;5056932;28;20197;-93
2023/04/29 19:08:01;;;;;;;12.03;6.90;;;9.50;99.90;;;;;;5040582;28;20201;-94
2023/04/29 19:10:28;;;;;;;13.33;6.67;;;9.30;99.90;;;;;;5052281;28;20202;-93
2023/04/29 19:12:54;;;;;;;10.17;6.43;;;9.30;99.90;;;;;;5047189;28;20219;-95
2023/04/29 19:15:23;;;;;;;9.90;6.97;;;9.10;99.90;;;;;;5046238;28;20231;-94
2023/04/29 19:17:50;;;;;;;9.77;6.10;;;9.00;99.90;;;;;;5051790;28;20208;-95
2023/04/29 19:20:17;;;;;;;9.37;6.13;;;9.00;99.90;;;;;;5055000;28;20200;-93
2023/04/29 19:22:45;;;;;;;9.57;6.33;;;8.90;99.90;;;;;;5052643;28;20206;-95
2023/04/29 19:25:12;;;;;;;11.77;7.80;;;8.80;99.90;;;;;;5055414;28;20646;-94
2023/04/29 19:27:43;;;;;;;9.93;8.67;;;8.80;99.90;;;;;;5054015;28;20200;-92
2023/04/29 19:30:11;;;;;;;10.70;7.33;;;8.70;99.90;;;;;;5059514;28;20654;-93
2023/04/29 19:32:39;;;;;;;9.67;6.80;;;8.70;99.90;;;;;;5057218;28;20222;-93
2023/04/29 19:35:07;;;;;;;12.80;8.40;;;8.70;99.90;;;;;;5057113;28;20243;-93
2023/04/29 19:37:34;;;;;;;11.80;6.93;;;8.60;82.00;;;;;;5050665;28;20714;-94
2023/04/29 19:40:02;;;;;;;9.43;6.90;;;8.60;92.30;;;;;;5056616;28;20550;-94
2023/04/29 19:42:29;;;;;;;9.03;6.80;;;8.50;99.90;;;;;;5056803;28;20194;-95
2023/04/29 19:44:56;;;;;;;24.93;18.77;;;8.40;99.90;;;;;;5056947;28;20199;-94
2023/04/29 19:47:23;;;;;;;13.47;8.90;;;8.30;99.90;;;;;;5064471;28;20206;-94
2023/04/29 19:49:50;;;;;;;12.50;7.70;;;8.20;99.90;;;;;;5058094;28;20225;-94
2023/04/29 19:52:17;;;;;;;12.97;9.53;;;8.10;99.90;;;;;;5043161;28;20216;-94
2023/04/29 19:54:44;;;;;;;18.17;9.80;;;8.00;99.90;;;;;;5057095;28;20205;-94
2023/04/29 19:57:12;;;;;;;16.93;10.90;;;7.90;99.90;;;;;;5057258;28;20298;-95
2023/04/29 19:59:39;;;;;;;16.33;10.23;;;7.80;99.90;;;;;;5057100;28;20286;-94
2023/04/29 20:02:07;;;;;;;12.57;7.47;;;7.80;99.90;;;;;;5056672;28;20191;-94
2023/04/29 20:04:33;;;;;;;17.73;10.80;;;7.70;99.90;;;;;;5044480;28;20199;-93
2023/04/29 20:07:02;;;;;;;26.23;13.17;;;7.60;99.90;;;;;;5050045;28;20225;-93
2023/04/29 20:09:30;;;;;;;20.30;11.40;;;7.60;99.90;;;;;;5050696;28;20199;-92
2023/04/29 20:11:57;;;;;;;19.13;10.57;;;7.60;1.00;;;;;;5052578;28;20248;-94
2023/04/29 20:14:25;;;;;;;18.70;11.60;;;7.50;1.00;;;;;;5056879;28;20587;-96
2023/04/29 20:16:52;;;;;;;19.50;11.83;;;7.50;1.00;;;;;;5056333;28;20233;-94
2023/04/29 20:19:19;;;;;;;17.83;9.93;;;7.50;1.00;;;;;;5054392;28;20204;-93
2023/04/29 20:21:46;;;;;;;17.43;11.23;;;7.50;1.00;;;;;;5055735;28;20249;-94
2023/04/29 20:24:13;;;;;;;16.00;10.83;;;7.50;1.00;;;;;;5053074;28;20204;-94
2023/04/29 20:26:40;;;;;;;18.27;12.13;;;7.40;1.00;;;;;;5056197;28;20194;-94
2023/04/29 20:29:07;;;;;;;19.43;12.87;;;7.40;1.00;;;;;;5055533;28;20197;-95
2023/04/29 20:31:35;;;;;;;16.47;11.83;;;7.40;1.00;;;;;;5054727;28;20196;-95
2023/04/29 20:34:01;;;;;;;17.13;11.90;;;7.40;1.00;;;;;;5054344;28;20289;-94
2023/04/29 20:36:28;;;;;;;16.53;11.23;;;7.30;1.00;;;;;;5054500;28;20678;-94
2023/04/29 20:38:56;;;;;;;20.07;12.50;;;7.30;1.00;;;;;;5055460;28;20556;-94
2023/04/29 20:41:25;;;;;;;20.33;12.83;;;7.30;1.00;;;;;;5054819;28;20196;-92
2023/04/29 20:43:51;;;;;;;17.87;12.00;;;7.20;1.00;;;;;;5054725;28;20215;-94
2023/04/29 20:46:18;;;;;;;16.90;11.37;;;7.20;1.00;;;;;;5054863;28;20557;-95
2023/04/29 20:48:46;;;;;;;17.80;11.13;;;7.20;1.00;;;;;;5054768;28;20201;-94
